Time;durP1;ratioP1;P1;durP2;ratioP2;P2;SDS_P1;SDS_P2;PMS_P1;PMS_P2;Temp;Humidity;BMP_temperature;BMP_pressure;BME280_temperature;BME280_humidity;BME280_pressure;Samples;Min_cycle;Max_cycle;Signal;HPM_P1;HPM_P2
2023/04/18 00:02:16;;;;;;;12.38;8.35;;;;;;;;;;4937987;28;20556;-70
2023/04/18 00:04:45;;;;;;;17.60;8.95;;;;;;;;;;4948099;28;20050;-70
2023/04/18 00:07:15;;;;;;;11.98;8.68;;;;;;;;;;4946289;28;20065;-70
2023/04/18 00:09:41;;;;;;;12.85;9.45;;;;;;;;;;4941095;28;20404;-70
2023/04/18 00:12:07;;;;;;;13.25;9.07;;;;;;;;;;4958230;28;20039;-70
2023/04/18 00:14:34;;;;;;;10.90;8.80;;;5.90;99.90;;;;;;4942009;28;20062;-70
2023/04/18 00:17:02;;;;;;;14.50;8.88;;;;;;;;;;4960159;28;20041;-70
2023/04/18 00:19:28;;;;;;;12.85;9.02;;;5.70;99.90;;;;;;4942528;28;20043;-70
2023/04/18 00:21:54;;;;;;;12.60;9.02;;;;;;;;;;4944775;28;20461;-70
2023/04/18 00:24:21;;;;;;;15.23;8.70;;;;;;;;;;4941291;28;20588;-70
2023/04/18 00:26:47;;;;;;;13.23;9.52;;;;;;;;;;4936391;29;20134;-70
2023/04/18 00:29:13;;;;;;;12.52;8.60;;;;;;;;;;4942633;28;20061;-70
2023/04/18 00:31:39;;;;;;;14.88;9.27;;;;;;;;;;4940198;29;20051;-70
2023/04/18 00:34:05;;;;;;;15.60;9.63;;;;;;;;;;4959483;28;20789;-70
2023/04/18 00:36:31;;;;;;;12.65;9.23;;;;;;;;;;4956421;28;20042;-70
2023/04/18 00:38:57;;;;;;;13.13;9.68;;;;;;;;;;4941271;28;20046;-70
2023/04/18 00:41:26;;;;;;;14.65;10.60;;;;;;;;;;4935887;28;20556;-70
2023/04/18 00:43:52;;;;;;;15.38;9.90;;;;;;;;;;4942953;28;20055;-70
2023/04/18 00:46:18;;;;;;;16.45;10.18;;;;;;;;;;4945758;28;20365;-70
2023/04/18 00:48:44;;;;;;;14.00;9.55;;;;;;;;;;4941684;28;20047;-70
2023/04/18 00:51:11;;;;;;;13.68;9.75;;;;;;;;;;4946820;28;20657;-70
2023/04/18 00:53:37;;;;;;;16.88;8.68;;;;;;;;;;4942790;29;20043;-70
2023/04/18 00:56:03;;;;;;;12.80;8.38;;;;;;;;;;4939546;28;20094;-70
2023/04/18 00:58:30;;;;;;;16.00;8.98;;;;;;;;;;4937516;28;20047;-70
2023/04/18 01:00:56;;;;;;;11.77;8.93;;;;;;;;;;4939880;28;20101;-70
2023/04/18 01:03:22;;;;;;;13.48;8.68;;;;;;;;;;4938102;29;20042;-70
2023/04/18 01:05:48;;;;;;;12.43;9.32;;;;;;;;;;4940057;28;20181;-70
2023/04/18 01:08:15;;;;;;;11.77;9.15;;;;;;;;;;4942765;28;20128;-70
2023/04/18 01:10:41;;;;;;;12.85;9.80;;;;;;;;;;4944779;28;20524;-70
2023/04/18 01:13:14;;;;;;;15.45;9.88;;;;;;;;;;4941717;28;20051;-70
2023/04/18 01:15:41;;;;;;;13.43;9.63;;;;;;;;;;4939805;28;20410;-70
2023/04/18 01:18:07;;;;;;;13.43;9.15;;;;;;;;;;4952761;28;20062;-70
2023/04/18 01:20:35;;;;;;;17.00;10.23;;;5.20;99.90;;;;;;4937298;28;20225;-70
2023/04/18 01:23:02;;;;;;;15.00;9.30;;;;;;;;;;4942197;28;20105;-70
2023/04/18 01:25:28;;;;;;;13.68;9.75;;;;;;;;;;4934610;28;20070;-70
2023/04/18 01:27:57;;;;;;;13.13;9.60;;;;;;;;;;4939901;28;20054;-70
2023/04/18 01:30:23;;;;;;;15.40;10.90;;;;;;;;;;4962828;28;20077;-70
2023/04/18 01:32:49;;;;;;;15.25;10.07;;;;;;;;;;4943713;28;20892;-70
2023/04/18 01:35:16;;;;;;;15.95;10.70;;;5.40;99.90;;;;;;4940992;28;20055;-70
2023/04/18 01:37:42;;;;;;;18.45;11.73;;;;;;;;;;4942737;28;20054;-70
2023/04/18 01:40:08;;;;;;;15.13;10.45;;;;;;;;;;4936354;29;20046;-70
2023/04/18 01:42:34;;;;;;;15.05;10.40;;;;;;;;;;4947517;28;20518;-70
2023/04/18 01:45:00;;;;;;;14.82;10.43;;;5.40;99.90;;;;;;4961234;28;20047;-70
2023/04/18 01:47:26;;;;;;;18.30;10.50;;;;;;;;;;4945425;28;20403;-70
2023/04/18 01:49:52;;;;;;;21.33;10.45;;;;;;;;;;4961571;28;20564;-70
2023/04/18 01:52:17;;;;;;;15.85;9.65;;;;;;;;;;4964283;28;20050;-70
2023/04/18 01:54:43;;;;;;;14.43;9.23;;;;;;;;;;4952708;28;20061;-70
2023/04/18 01:57:09;;;;;;;13.65;9.18;;;;;;;;;;4934043;28;20417;-70
2023/04/18 01:59:35;;;;;;;14.20;9.13;;;;;;;;;;4944249;28;20114;-70
2023/04/18 02:02:01;;;;;;;12.63;9.32;;;;;;;;;;4937411;28;20054;-70
2023/04/18 02:04:27;;;;;;;12.75;9.45;;;;;;;;;;4936373;29;20047;-70
2023/04/18 02:06:53;;;;;;;15.63;9.73;;;;;;;;;;4939793;28;20051;-70
2023/04/18 02:09:19;;;;;;;17.20;9.07;;;;;;;;;;4937551;28;20145;-70
2023/04/18 02:11:45;;;;;;;11.90;8.07;;;;;;;;;;4959029;28;20054;-70
2023/04/18 02:14:11;;;;;;;14.35;9.90;;;;;;;;;;4956092;28;20057;-70
2023/04/18 02:16:37;;;;;;;13.13;9.02;;;;;;;;;;4939308;28;20113;-70
2023/04/18 02:19:05;;;;;;;14.98;9.35;;;;;;;;;;4944851;28;20448;-70
2023/04/18 02:21:30;;;;;;;11.75;8.40;;;6.00;99.90;;;;;;4935798;28;20051;-70
2023/04/18 02:23:56;;;;;;;14.88;8.77;;;;;;;;;;4933414;29;20110;-70
2023/04/18 02:26:22;;;;;;;13.85;8.68;;;;;;;;;;4959580;28;20082;-70
2023/04/18 02:28:48;;;;;;;12.90;8.75;;;6.10;99.90;;;;;;4939758;28;20077;-70
2023/04/18 02:31:14;;;;;;;14.50;8.93;;;;;;;;;;4943506;28;20445;-70
2023/04/18 02:33:42;;;;;;;13.18;8.55;;;6.20;99.90;;;;;;4941471;28;20047;-70
2023/04/18 02:36:08;;;;;;;13.82;7.93;;;;;;;;;;4933809;28;20051;-70
2023/04/18 02:38:33;;;;;;;15.52;9.38;;;6.10;99.90;;;;;;4949172;28;20115;-70
2023/04/18 02:40:59;;;;;;;14.40;10.18;;;;;;;;;;4928346;28;20081;-70
2023/04/18 02:43:25;;;;;;;13.85;9.48;;;;;;;;;;4950583;28;20058;-70
2023/04/18 02:45:51;;;;;;;14.80;10.23;;;;;;;;;;4963692;28;20043;-70
2023/04/18 02:48:17;;;;;;;15.43;9.30;;;;;;;;;;4945661;28;20047;-70
2023/04/18 02:50:43;;;;;;;15.25;8.95;;;;;;;;;;4943516;28;20512;-70
2023/04/18 02:53:09;;;;;;;14.65;9.45;;;;;;;;;;4966072;28;20154;-70
2023/04/18 02:55:36;;;;;;;17.00;10.75;;;;;;;;;;4943516;29;20051;-70
2023/04/18 02:58:02;;;;;;;16.52;10.30;;;;;;;;;;4958985;28;20149;-70
2023/04/18 03:00:28;;;;;;;14.75;9.27;;;;;;;;;;4943960;29;20150;-70
2023/04/18 03:02:54;;;;;;;16.25;9.85;;;6.30;99.90;;;;;;4960459;28;20042;-70
2023/04/18 03:05:21;;;;;;;15.55;11.20;;;;;;;;;;4938942;28;20051;-70
2023/04/18 03:07:46;;;;;;;14.60;10.43;;;6.40;99.90;;;;;;4943907;28;20046;-70
2023/04/18 03:10:12;;;;;;;13.65;9.40;;;;;;;;;;4945316;28;20512;-70
2023/04/18 03:12:38;;;;;;;14.80;9.35;;;;;;;;;;4943880;28;20051;-70
2023/04/18 03:15:04;;;;;;;13.43;9.27;;;6.40;99.90;;;;;;4964682;28;20042;-70
2023/04/18 03:17:30;;;;;;;14.70;9.98;;;;;;;;;;4940088;28;20492;-70
2023/04/18 03:19:56;;;;;;;19.23;10.75;;;;;;;;;;4947830;28;20078;-70
2023/04/18 03:22:23;;;;;;;15.75;9.98;;;;;;;;;;4962561;28;20073;-70
2023/04/18 03:24:49;;;;;;;13.75;9.82;;;;;;;;;;4940182;28;21751;-70
2023/04/18 03:27:14;;;;;;;12.40;8.55;;;6.60;99.90;;;;;;4958354;28;20051;-70
2023/04/18 03:29:40;;;;;;;12.90;9.18;;;;;;;;;;4960531;28;20093;-70
2023/04/18 03:32:06;;;;;;;14.35;9.13;;;;;;;;;;4939248;28;20047;-70
2023/04/18 03:34:32;;;;;;;14.25;9.55;;;;;;;;;;4942867;28;20081;-70
2023/04/18 03:36:58;;;;;;;15.35;9.82;;;;;;;;;;4959882;28;20039;-71
2023/04/18 03:39:24;;;;;;;13.82;9.20;;;;;;;;;;4944303;28;20539;-70
2023/04/18 03:41:52;;;;;;;15.32;9.65;;;;;;;;;;4946318;28;20126;-70
2023/04/18 03:44:18;;;;;;;15.98;9.13;;;;;;;;;;4944724;28;20082;-70
2023/04/18 03:46:44;;;;;;;15.90;10.30;;;;;;;;;;4938081;28;20082;-70
2023/04/18 03:49:09;;;;;;;13.82;8.93;;;6.60;99.90;;;;;;4963854;28;20058;-70
2023/04/18 03:51:42;;;;;;;15.13;9.55;;;;;;;;;;4941152;29;20065;-70
2023/04/18 03:54:08;;;;;;;11.98;8.57;;;;;;;;;;4939776;28;20061;-70
2023/04/18 03:56:34;;;;;;;14.82;8.95;;;;;;;;;;4942310;28;20042;-70
2023/04/18 03:59:00;;;;;;;12.43;7.95;;;6.80;99.90;;;;;;4960887;28;20094;-70
2023/04/18 04:01:25;;;;;;;12.80;8.77;;;6.60;99.90;;;;;;4938117;29;20047;-70
2023/04/18 04:03:52;;;;;;;11.45;8.07;;;;;;;;;;4942014;29;20043;-70
2023/04/18 04:06:17;;;;;;;14.13;8.40;;;6.60;99.90;;;;;;4951509;28;20047;-70
2023/04/18 04:08:43;;;;;;;14.30;8.55;;;;;;;;;;4945951;28;20035;-70
2023/04/18 04:11:10;;;;;;;12.85;7.82;;;;;;;;;;4939711;28;20142;-70
2023/04/18 04:13:36;;;;;;;13.05;8.75;;;6.70;99.90;;;;;;4944444;28;20174;-70
2023/04/18 04:16:02;;;;;;;11.13;8.15;;;;;;;;;;4944506;28;20309;-70
2023/04/18 04:18:30;;;;;;;12.95;8.13;;;;;;;;;;4940921;28;20431;-70
2023/04/18 04:20:57;;;;;;;12.05;8.43;;;;;;;;;;4940433;28;20039;-70
2023/04/18 04:23:24;;;;;;;13.25;8.23;;;;;;;;;;4943765;28;20065;-70
2023/04/18 04:25:51;;;;;;;10.95;7.97;;;;;;;;;;4946912;28;20042;-70
2023/04/18 04:28:21;;;;;;;13.13;8.38;;;;;;;;;;4943557;28;20516;-70
2023/04/18 04:30:47;;;;;;;12.98;8.25;;;;;;;;;;4955457;28;20749;-70
2023/04/18 04:33:13;;;;;;;14.35;8.80;;;;;;;;;;4938288;28;20054;-70
2023/04/18 04:35:40;;;;;;;12.88;7.40;;;;;;;;;;4956793;28;20123;-70
2023/04/18 04:38:07;;;;;;;11.35;7.80;;;6.70;99.90;;;;;;4941048;28;20050;-70
2023/04/18 04:40:33;;;;;;;11.80;7.97;;;;;;;;;;4962328;28;20051;-70
2023/04/18 04:42:59;;;;;;;12.73;9.27;;;;;;;;;;4942506;28;20047;-70
2023/04/18 04:45:25;;;;;;;13.85;8.95;;;;;;;;;;4964227;28;20118;-70
2023/04/18 04:47:51;;;;;;;13.13;8.50;;;;;;;;;;4944727;28;20050;-70
2023/04/18 04:50:18;;;;;;;13.05;8.50;;;;;;;;;;4963726;28;20045;-70
2023/04/18 04:52:44;;;;;;;13.90;7.70;;;;;;;;;;4941071;28;20074;-70
2023/04/18 04:55:10;;;;;;;13.82;8.60;;;;;;;;;;4942082;29;20415;-70
2023/04/18 04:57:36;;;;;;;13.77;7.72;;;;;;;;;;4945705;28;20049;-70
2023/04/18 05:00:04;;;;;;;14.93;8.38;;;;;;;;;;4939942;28;20043;-70
2023/04/18 05:02:29;;;;;;;11.90;7.70;;;7.00;99.90;;;;;;4941602;29;20050;-70
2023/04/18 05:04:55;;;;;;;13.63;8.13;;;;;;;;;;4955774;28;20457;-70
2023/04/18 05:07:21;;;;;;;11.20;8.30;;;;;;;;;;4935968;28;20122;-70
2023/04/18 05:09:48;;;;;;;14.73;7.95;;;;;;;;;;4957437;28;20515;-70
2023/04/18 05:12:14;;;;;;;12.20;7.95;;;7.10;99.90;;;;;;4958799;28;20072;-70
2023/04/18 05:14:40;;;;;;;11.55;7.18;;;;;;;;;;4962100;28;20047;-70
2023/04/18 05:17:06;;;;;;;10.52;7.00;;;;;;;;;;4960385;28;20066;-70
2023/04/18 05:19:32;;;;;;;12.88;8.20;;;;;;;;;;4959520;28;20039;-70
2023/04/18 05:21:58;;;;;;;12.13;8.40;;;;;;;;;;4945323;28;20172;-70
2023/04/18 05:24:24;;;;;;;10.32;7.82;;;;;;;;;;4943875;28;20058;-71
2023/04/18 05:26:50;;;;;;;12.30;7.15;;;;;;;;;;4957539;28;20042;-70
2023/04/18 05:29:16;;;;;;;11.00;8.10;;;;;;;;;;4939689;28;20047;-70
2023/04/18 05:31:42;;;;;;;11.27;7.35;;;;;;;;;;4941719;28;20525;-70
2023/04/18 05:34:08;;;;;;;11.05;7.13;;;;;;;;;;4959430;28;20859;-70
2023/04/18 05:36:34;;;;;;;10.57;7.22;;;;;;;;;;4943017;28;20047;-70
2023/04/18 05:39:00;;;;;;;10.75;8.00;;;;;;;;;;4943763;28;20046;-70
2023/04/18 05:41:25;;;;;;;10.65;7.63;;;7.10;99.90;;;;;;4941872;28;20043;-70
2023/04/18 05:43:51;;;;;;;10.48;7.88;;;;;;;;;;4919533;28;20043;-70
2023/04/18 05:46:17;;;;;;;10.25;7.50;;;;;;;;;;4942522;28;20047;-70
2023/04/18 05:48:43;;;;;;;13.95;7.55;;;;;;;;;;4935655;28;20749;-70
2023/04/18 05:51:09;;;;;;;14.98;7.30;;;;;;;;;;4941080;28;20110;-70
2023/04/18 05:53:35;;;;;;;11.63;7.75;;;;;;;;;;4940405;29;20067;-70
2023/04/18 05:56:01;;;;;;;12.95;6.85;;;;;;;;;;4939624;28;20051;-70
2023/04/18 05:58:27;;;;;;;12.23;7.10;;;;;;;;;;4938609;28;20449;-70
2023/04/18 06:00:53;;;;;;;16.50;8.30;;;;;;;;;;4959114;28;20150;-70
2023/04/18 06:03:19;;;;;;;12.48;7.65;;;;;;;;;;4945443;28;20157;-71
2023/04/18 06:05:45;;;;;;;14.57;8.13;;;;;;;;;;4945061;28;20074;-70
2023/04/18 06:08:11;;;;;;;11.27;7.95;;;;;;;;;;4959470;28;20129;-70
2023/04/18 06:10:37;;;;;;;11.18;7.35;;;;;;;;;;4957860;28;20048;-70
2023/04/18 06:13:03;;;;;;;10.70;7.25;;;;;;;;;;4950573;28;20696;-70
2023/04/18 06:15:30;;;;;;;11.98;8.23;;;;;;;;;;4945776;28;20051;-70
2023/04/18 06:17:56;;;;;;;11.10;8.00;;;;;;;;;;4947827;28;20054;-70
2023/04/18 06:20:22;;;;;;;13.40;8.40;;;;;;;;;;4944110;28;20047;-70
2023/04/18 06:22:48;;;;;;;16.38;8.15;;;;;;;;;;4942099;28;20061;-70
2023/04/18 06:25:14;;;;;;;12.73;8.63;;;;;;;;;;4958092;28;20066;-70
2023/04/18 06:27:41;;;;;;;14.77;9.75;;;;;;;;;;4947236;28;20096;-70
2023/04/18 06:30:07;;;;;;;13.88;8.75;;;;;;;;;;4938272;28;20082;-70
2023/04/18 06:32:33;;;;;;;13.32;8.43;;;;;;;;;;4965859;28;20531;-75
2023/04/18 06:34:59;;;;;;;13.70;8.25;;;;;;;;;;4942925;28;20055;-71
2023/04/18 06:37:25;;;;;;;13.13;8.93;;;;;;;;;;4952310;28;20051;-71
2023/04/18 06:39:51;;;;;;;13.77;9.02;;;;;;;;;;4942536;28;20038;-71
2023/04/18 06:42:17;;;;;;;18.88;9.98;;;;;;;;;;4959398;28;20035;-71
2023/04/18 06:44:43;;;;;;;15.60;9.27;;;;;;;;;;4963537;28;20043;-70
2023/04/18 06:47:10;;;;;;;12.10;8.23;;;;;;;;;;4961940;28;20603;-71
2023/04/18 06:49:36;;;;;;;11.57;8.27;;;;;;;;;;4935899;29;20138;-71
2023/04/18 06:52:02;;;;;;;15.10;9.35;;;;;;;;;;4957732;28;20045;-71
2023/04/18 06:54:28;;;;;;;13.20;9.30;;;;;;;;;;4940632;28;20054;-71
2023/04/18 06:56:54;;;;;;;11.98;8.15;;;8.00;99.90;;;;;;4945274;28;20532;-71
2023/04/18 06:59:20;;;;;;;13.75;8.77;;;;;;;;;;4955829;28;20053;-70
2023/04/18 07:01:47;;;;;;;15.23;8.93;;;;;;;;;;4953711;28;20035;-72
2023/04/18 07:04:14;;;;;;;13.13;8.55;;;;;;;;;;4936905;28;20059;-73
2023/04/18 07:06:41;;;;;;;14.23;8.45;;;7.90;99.90;;;;;;4939223;28;20572;-70
2023/04/18 07:09:08;;;;;;;17.98;9.25;;;;;;;;;;4950529;28;20813;-70
2023/04/18 07:11:34;;;;;;;13.75;8.85;;;;;;;;;;4948185;28;20059;-69
2023/04/18 07:14:00;;;;;;;12.98;8.60;;;;;;;;;;4940676;28;20065;-71
2023/04/18 07:16:26;;;;;;;14.45;8.70;;;;;;;;;;4928527;28;20425;-71
2023/04/18 07:18:52;;;;;;;11.70;8.10;;;8.30;99.90;;;;;;4944576;28;20045;-71
2023/04/18 07:21:18;;;;;;;10.85;8.65;;;;;;;;;;4938227;28;20043;-71
2023/04/18 07:23:44;;;;;;;15.80;10.00;;;;;;;;;;4943572;28;20058;-71
2023/04/18 07:26:12;;;;;;;14.60;9.00;;;;;;;;;;4935689;28;20050;-71
2023/04/18 07:28:38;;;;;;;12.43;9.02;;;;;;;;;;4939602;28;20694;-71
2023/04/18 07:31:04;;;;;;;12.38;8.00;;;;;;;;;;4938307;29;20042;-71
2023/04/18 07:33:32;;;;;;;12.02;9.05;;;;;;;;;;4939094;28;20058;-72
2023/04/18 07:35:58;;;;;;;11.55;7.97;;;;;;;;;;4946415;29;20093;-70
2023/04/18 07:38:24;;;;;;;12.70;7.82;;;;;;;;;;4938850;28;20055;-70
2023/04/18 07:40:58;;;;;;;11.25;7.63;;;8.50;99.90;;;;;;4936618;28;20149;-71
2023/04/18 07:43:24;;;;;;;12.70;8.13;;;;;;;;;;4942968;28;20126;-70
2023/04/18 07:45:50;;;;;;;12.35;7.78;;;;;;;;;;4959522;28;20202;-70
2023/04/18 07:48:16;;;;;;;13.65;8.15;;;;;;;;;;4946762;28;20525;-71
2023/04/18 07:50:42;;;;;;;12.18;7.70;;;;;;;;;;4939519;28;20046;-72
2023/04/18 07:53:08;;;;;;;11.60;7.80;;;;;;;;;;4953640;28;20063;-72
2023/04/18 07:55:35;;;;;;;12.93;7.85;;;;;;;;;;4942819;29;20054;-72
2023/04/18 07:58:01;;;;;;;14.05;8.02;;;;;;;;;;4959982;28;20583;-70
2023/04/18 08:00:31;;;;;;;10.75;7.95;;;;;;;;;;4935204;28;20046;-71
2023/04/18 08:02:57;;;;;;;16.05;8.85;;;;;;;;;;4942277;28;20050;-71
2023/04/18 08:05:23;;;;;;;10.75;7.88;;;;;;;;;;4941634;28;20046;-70
2023/04/18 08:07:48;;;;;;;14.02;7.82;;;10.20;99.90;;;;;;4944263;28;20046;-72
2023/04/18 08:10:14;;;;;;;13.07;7.47;;;;;;;;;;4937791;28;20102;-69
2023/04/18 08:12:40;;;;;;;11.60;7.68;;;;;;;;;;4916831;28;20035;-70
2023/04/18 08:15:07;;;;;;;16.27;9.38;;;;;;;;;;4956578;28;20061;-70
2023/04/18 08:17:32;;;;;;;10.88;7.38;;;10.60;99.90;;;;;;4941737;28;20039;-70
2023/04/18 08:19:59;;;;;;;14.05;6.68;;;10.80;99.90;;;;;;4947307;28;20049;-70
2023/04/18 08:22:25;;;;;;;10.30;6.95;;;;;;;;;;4940315;28;20081;-72
2023/04/18 08:24:52;;;;;;;13.27;7.13;;;;;;;;;;4941958;28;20178;-72
2023/04/18 08:27:17;;;;;;;8.98;6.38;;;;;;;;;;4961683;28;20047;-73
2023/04/18 08:29:44;;;;;;;8.70;6.10;;;;;;;;;;4953193;28;20039;-73
2023/04/18 08:32:10;;;;;;;12.80;7.10;;;11.00;99.90;;;;;;4949830;28;20039;-71
2023/04/18 08:34:36;;;;;;;11.95;7.82;;;;;;;;;;4947883;28;20066;-72
2023/04/18 08:37:03;;;;;;;9.32;6.97;;;;;;;;;;4942418;28;20105;-72
2023/04/18 08:39:29;;;;;;;9.73;6.93;;;;;;;;;;4965585;28;20579;-71
2023/04/18 08:41:59;;;;;;;11.27;7.13;;;10.90;99.90;;;;;;4938098;28;20179;-72
2023/04/18 08:44:29;;;;;;;9.77;6.97;;;;;;;;;;4927535;29;20102;-71
2023/04/18 08:46:56;;;;;;;10.82;6.35;;;11.20;99.90;;;;;;4957377;28;20135;-71
2023/04/18 08:49:32;;;;;;;12.68;6.88;;;;;;;;;;5089211;27;20417;-71
2023/04/18 08:51:59;;;;;;;13.63;6.78;;;;;;;;;;5068731;28;20059;-71
2023/04/18 08:54:29;;;;;;;9.18;6.93;;;;;;;;;;5084001;28;20067;-72
2023/04/18 08:57:08;;;;;;;10.57;6.82;;;;;;;;;;5065446;28;20104;-72
2023/04/18 08:59:34;;;;;;;10.77;7.20;;;;;;;;;;5065010;28;20116;-72
2023/04/18 09:02:01;;;;;;;10.93;7.30;;;;;;;;;;5065608;28;20036;-72
2023/04/18 09:04:34;;;;;;;10.52;6.47;;;;;;;;;;5083437;28;20139;-72
2023/04/18 09:07:01;;;;;;;12.75;7.25;;;11.80;99.90;;;;;;5063782;28;20059;-72
2023/04/18 09:09:27;;;;;;;10.63;6.63;;;;;;;;;;5064175;28;21387;-72
2023/04/18 09:12:06;;;;;;;11.02;7.38;;;;;;;;;;5064837;28;20044;-72
2023/04/18 09:14:36;;;;;;;8.68;5.28;;;;;;;;;;5064339;28;20040;-72
2023/04/18 09:17:02;;;;;;;8.82;5.20;;;;;;;;;;5064446;28;20048;-72
2023/04/18 09:19:28;;;;;;;9.65;6.57;;;;;;;;;;5064320;28;20044;-72
2023/04/18 09:21:58;;;;;;;10.40;7.35;;;;;;;;;;5064852;28;20052;-72
2023/04/18 09:24:25;;;;;;;11.18;8.25;;;;;;;;;;5064233;28;20072;-72
2023/04/18 09:26:55;;;;;;;9.52;6.63;;;;;;;;;;5064385;28;20040;-72
2023/04/18 09:29:22;;;;;;;9.27;6.88;;;;;;;;;;5082952;28;20459;-72
2023/04/18 09:31:59;;;;;;;8.38;6.28;;;11.40;99.90;;;;;;5064263;28;20051;-72
2023/04/18 09:34:26;;;;;;;9.45;6.60;;;;;;;;;;5046388;28;20055;-72
2023/04/18 09:37:05;;;;;;;9.85;6.43;;;;;;;;;;5065626;28;20040;-72
2023/04/18 09:39:31;;;;;;;9.38;7.07;;;11.60;99.90;;;;;;5062874;28;20046;-72
2023/04/18 09:41:57;;;;;;;8.13;6.13;;;;;;;;;;5070829;28;20036;-72
2023/04/18 09:44:23;;;;;;;8.32;6.28;;;;;;;;;;5082315;28;20398;-72
2023/04/18 09:46:49;;;;;;;7.80;5.85;;;;;;;;;;5064990;28;20036;-72
2023/04/18 09:49:15;;;;;;;7.18;5.40;;;;;;;;;;5064242;28;20052;-72
2023/04/18 09:51:43;;;;;;;7.10;5.50;;;12.70;99.90;;;;;;5064015;28;20111;-72
2023/04/18 09:54:10;;;;;;;8.32;6.50;;;;;;;;;;5082064;28;20040;-72
2023/04/18 09:56:38;;;;;;;8.32;7.32;;;12.90;99.90;;;;;;5082215;28;20040;-72
2023/04/18 09:59:08;;;;;;;8.27;5.95;;;;;;;;;;5060745;28;20878;-72
2023/04/18 10:01:34;;;;;;;9.13;5.93;;;12.70;99.90;;;;;;5066669;28;20571;-72
2023/04/18 10:04:08;;;;;;;8.75;5.90;;;12.80;99.90;;;;;;5050520;28;20047;-71
2023/04/18 10:06:36;;;;;;;9.95;6.60;;;13.10;99.90;;;;;;5052039;28;20072;-72
2023/04/18 10:09:03;;;;;;;7.78;6.13;;;13.30;99.90;;;;;;5051289;28;20060;-72
2023/04/18 10:11:32;;;;;;;9.48;6.60;;;13.20;99.90;;;;;;5068804;28;20045;-72
2023/04/18 10:14:00;;;;;;;9.02;6.28;;;;;;;;;;5049954;28;20047;-72
2023/04/18 10:16:27;;;;;;;10.15;6.43;;;12.80;99.90;;;;;;5068524;28;20043;-72
2023/04/18 10:18:53;;;;;;;7.68;6.38;;;;;;;;;;5050098;28;20055;-72
2023/04/18 10:21:20;;;;;;;7.93;6.00;;;12.80;99.90;;;;;;5048051;28;20048;-72
2023/04/18 10:23:47;;;;;;;7.00;3.75;;;;;;;;;;5050485;28;20406;-72
2023/04/18 10:26:13;;;;;;;9.75;5.60;;;12.90;99.90;;;;;;5050270;28;20076;-72
2023/04/18 10:28:51;;;;;;;8.45;5.70;;;;;;;;;;5069048;28;20059;-72
2023/04/18 10:31:17;;;;;;;7.85;5.70;;;;;;;;;;5029513;28;20040;-72
2023/04/18 10:33:50;;;;;;;9.23;6.18;;;12.50;99.90;;;;;;5068094;28;20041;-72
2023/04/18 10:36:19;;;;;;;9.30;6.20;;;12.60;99.90;;;;;;5054696;28;20055;-73
2023/04/18 10:38:51;;;;;;;8.88;6.72;;;12.10;99.90;;;;;;5051253;28;20115;-73
2023/04/18 10:41:23;;;;;;;11.10;6.80;;;12.70;99.90;;;;;;5056318;28;20040;-73
2023/04/18 10:44:13;;;;;;;10.43;6.63;;;13.00;99.90;;;;;;5055761;28;20048;-75
2023/04/18 10:46:41;;;;;;;9.73;6.20;;;14.20;99.90;;;;;;5039953;28;20055;-75
2023/04/18 10:49:15;;;;;;;9.10;6.20;;;;;;;;;;5025868;28;20383;-72
2023/04/18 10:51:43;;;;;;;9.13;5.95;;;13.10;99.90;;;;;;5047339;28;20124;-73
2023/04/18 10:54:10;;;;;;;7.95;5.78;;;13.10;99.90;;;;;;5048257;28;20040;-73
2023/04/18 10:56:36;;;;;;;9.35;5.82;;;13.20;99.90;;;;;;5063479;28;20037;-72
2023/04/18 10:59:02;;;;;;;5.68;4.78;;;13.50;99.90;;;;;;5035118;28;20048;-71
2023/04/18 11:01:32;;;;;;;9.77;6.20;;;13.40;99.90;;;;;;5029153;28;20052;-72
2023/04/18 11:03:59;;;;;;;6.97;5.95;;;;;;;;;;5045197;28;20037;-72
2023/04/18 11:06:29;;;;;;;6.90;5.50;;;;;;;;;;5047260;28;20037;-72
2023/04/18 11:09:13;;;;;;;7.90;5.97;;;13.60;99.90;;;;;;5043711;28;20092;-73
2023/04/18 11:11:39;;;;;;;7.90;5.88;;;13.80;99.90;;;;;;5047204;28;20447;-73
2023/04/18 11:14:05;;;;;;;8.02;5.55;;;;;;;;;;5048357;28;20047;-69
2023/04/18 11:16:32;;;;;;;7.50;5.00;;;13.40;99.90;;;;;;5047426;28;20037;-68
2023/04/18 11:18:58;;;;;;;7.47;5.82;;;;;;;;;;5046234;28;20047;-71
2023/04/18 11:21:28;;;;;;;7.78;5.47;;;13.50;99.90;;;;;;5046326;28;20045;-71
2023/04/18 11:23:55;;;;;;;8.23;6.57;;;13.30;99.90;;;;;;5046183;28;20122;-76
2023/04/18 11:26:27;;;;;;;10.30;6.75;;;13.60;99.90;;;;;;5047891;28;20647;-72
2023/04/18 11:28:57;;;;;;;8.13;6.18;;;13.30;99.90;;;;;;5045112;28;20044;-72
2023/04/18 11:31:24;;;;;;;9.93;6.47;;;13.60;99.90;;;;;;5047169;28;20048;-71
2023/04/18 11:33:55;;;;;;;12.48;6.18;;;13.60;99.90;;;;;;5047082;28;20036;-73
2023/04/18 11:36:21;;;;;;;9.35;7.55;;;;;;;;;;5029645;28;20049;-72
2023/04/18 11:38:47;;;;;;;11.90;6.95;;;;;;;;;;5046756;28;20056;-79
2023/04/18 11:41:14;;;;;;;6.07;4.95;;;13.90;99.90;;;;;;5047768;28;20098;-76
2023/04/18 11:43:44;;;;;;;8.70;6.50;;;13.70;99.90;;;;;;5045763;28;20055;-74
2023/04/18 11:46:12;;;;;;;8.77;6.95;;;13.70;99.90;;;;;;5045084;28;20045;-71
2023/04/18 11:48:39;;;;;;;8.40;6.50;;;13.30;99.90;;;;;;5044301;28;20053;-71
2023/04/18 11:51:06;;;;;;;11.07;7.50;;;13.30;99.90;;;;;;5046623;28;20043;-71
2023/04/18 11:53:36;;;;;;;10.10;7.00;;;13.30;99.90;;;;;;5045588;28;20422;-68
2023/04/18 11:56:03;;;;;;;17.48;7.85;;;13.40;99.90;;;;;;5044466;28;20469;-68
2023/04/18 11:58:32;;;;;;;11.15;8.13;;;13.50;99.90;;;;;;5048294;28;20045;-68
2023/04/18 12:00:59;;;;;;;9.43;7.45;;;13.30;99.90;;;;;;5048622;28;20044;-68
2023/04/18 12:03:24;;;;;;;11.23;7.63;;;13.20;99.90;;;;;;5046925;28;20049;-68
2023/04/18 12:05:59;;;;;;;8.88;7.45;;;13.40;99.90;;;;;;5051661;28;20044;-69
2023/04/18 12:08:25;;;;;;;11.93;7.60;;;13.40;99.90;;;;;;5045118;28;20171;-74
2023/04/18 12:10:53;;;;;;;11.18;7.38;;;13.50;99.90;;;;;;5047830;28;20052;-73
2023/04/18 12:13:39;;;;;;;11.40;7.95;;;13.60;99.90;;;;;;5051820;28;20048;-73
2023/04/18 12:16:06;;;;;;;12.20;8.20;;;;;;;;;;5049665;28;20091;-71
2023/04/18 12:18:32;;;;;;;11.27;7.55;;;;;;;;;;5046383;28;20060;-73
2023/04/18 12:21:01;;;;;;;11.85;8.05;;;13.60;99.90;;;;;;5044668;28;20041;-71
2023/04/18 12:23:34;;;;;;;9.40;6.88;;;;;;;;;;5044925;28;20057;-72
2023/04/18 12:26:05;;;;;;;9.30;7.38;;;13.90;99.90;;;;;;5045832;28;20087;-72
2023/04/18 12:28:32;;;;;;;9.93;7.88;;;;;;;;;;5044488;28;20715;-72
2023/04/18 12:30:58;;;;;;;16.20;8.85;;;;;;;;;;5044636;28;20398;-72
2023/04/18 12:33:25;;;;;;;12.32;8.10;;;;;;;;;;5043228;28;20045;-72
2023/04/18 12:35:51;;;;;;;10.75;7.88;;;13.90;99.90;;;;;;5044940;28;20048;-72
2023/04/18 12:38:23;;;;;;;13.38;8.82;;;13.90;99.90;;;;;;5046101;28;20142;-72
2023/04/18 12:40:50;;;;;;;14.07;8.35;;;13.70;99.90;;;;;;5044163;28;20041;-74
2023/04/18 12:43:16;;;;;;;12.20;8.57;;;;;;;;;;5046373;28;20076;-73
2023/04/18 12:45:42;;;;;;;9.95;5.28;;;;;;;;;;5044509;28;20407;-73
2023/04/18 12:48:08;;;;;;;13.52;8.30;;;;;;;;;;5027626;28;20052;-73
2023/04/18 12:50:34;;;;;;;12.20;8.02;;;;;;;;;;5046838;28;20461;-73
2023/04/18 12:53:01;;;;;;;12.93;7.45;;;13.90;99.90;;;;;;5049285;28;20040;-73
2023/04/18 12:55:27;;;;;;;10.10;8.30;;;13.70;99.90;;;;;;5045762;28;20108;-73
2023/04/18 12:57:54;;;;;;;10.68;6.07;;;;;;;;;;5050194;28;20044;-73
2023/04/18 13:00:22;;;;;;;9.45;5.88;;;13.90;99.90;;;;;;5050261;28;20132;-73
2023/04/18 13:02:48;;;;;;;9.27;6.03;;;14.00;99.90;;;;;;5046446;28;20039;-74
2023/04/18 13:05:15;;;;;;;8.65;6.18;;;14.00;99.90;;;;;;5044099;28;20511;-75
2023/04/18 13:07:41;;;;;;;10.73;6.72;;;;;;;;;;5045799;28;20107;-75
2023/04/18 13:10:09;;;;;;;10.20;6.47;;;14.30;99.90;;;;;;5045151;28;20044;-75
2023/04/18 13:12:36;;;;;;;11.65;7.00;;;;;;;;;;5045816;28;20056;-74
2023/04/18 13:15:02;;;;;;;11.65;7.55;;;;;;;;;;5046086;28;20033;-74
2023/04/18 13:17:28;;;;;;;10.98;8.18;;;;;;;;;;5045346;28;20088;-75
2023/04/18 13:19:54;;;;;;;10.75;5.97;;;;;;;;;;5044542;28;20060;-75
2023/04/18 13:22:20;;;;;;;9.93;8.00;;;14.20;99.90;;;;;;5043495;28;20041;-75
2023/04/18 13:24:46;;;;;;;12.13;7.57;;;14.20;99.90;;;;;;5045479;28;20045;-76
2023/04/18 13:27:13;;;;;;;10.38;7.55;;;14.20;99.90;;;;;;5044711;28;20098;-75
2023/04/18 13:29:40;;;;;;;9.45;7.22;;;14.30;99.90;;;;;;5047695;28;20032;-75
2023/04/18 13:32:07;;;;;;;12.27;8.00;;;14.50;99.90;;;;;;5047212;28;20091;-75
2023/04/18 13:34:34;;;;;;;10.55;7.28;;;;;;;;;;5044851;28;20423;-74
2023/04/18 13:37:00;;;;;;;11.57;7.35;;;;;;;;;;5051926;28;20037;-75
2023/04/18 13:39:26;;;;;;;7.88;6.32;;;;;;;;;;5047481;28;20044;-74
2023/04/18 13:41:53;;;;;;;11.77;6.57;;;14.00;99.90;;;;;;5051521;28;20151;-77
2023/04/18 13:44:19;;;;;;;9.43;6.43;;;;;;;;;;5043793;28;20040;-74
2023/04/18 13:46:45;;;;;;;8.68;6.90;;;;;;;;;;5047848;28;20041;-74
2023/04/18 13:49:12;;;;;;;10.25;5.97;;;;;;;;;;5047329;28;20181;-75
2023/04/18 13:51:38;;;;;;;8.88;5.32;;;;;;;;;;5050759;28;20819;-75
2023/04/18 13:54:04;;;;;;;6.95;5.93;;;;;;;;;;5030424;28;20045;-74
2023/04/18 13:56:29;;;;;;;8.40;5.45;;;14.30;99.90;;;;;;5040395;28;20047;-76